sensor_id;sensor_type;location;lat;lon;timestamp;P1;durP1;ratioP1;P2;durP2;ratioP2
50309;SDS011;36207;51.850;21.698;2023-02-28T00:00:31;12.70;;;7.00;;
50309;SDS011;36207;51.850;21.698;2023-02-28T00:03:14;15.50;;;9.60;;
50309;SDS011;36207;51.850;21.698;2023-02-28T00:05:40;15.30;;;8.10;;
50309;SDS011;36207;51.850;21.698;2023-02-28T00:08:07;16.70;;;9.20;;
50309;SDS011;36207;51.850;21.698;2023-02-28T00:10:33;16.90;;;9.20;;
50309;SDS011;36207;51.850;21.698;2023-02-28T00:13:00;14.00;;;8.00;;
50309;SDS011;36207;51.850;21.698;2023-02-28T00:15:28;14.10;;;7.60;;
50309;SDS011;36207;51.850;21.698;2023-02-28T00:17:54;13.80;;;7.60;;
50309;SDS011;36207;51.850;21.698;2023-02-28T00:20:20;14.20;;;7.90;;
50309;SDS011;36207;51.850;21.698;2023-02-28T00:22:47;12.90;;;7.40;;
50309;SDS011;36207;51.850;21.698;2023-02-28T00:25:16;13.90;;;7.70;;
50309;SDS011;36207;51.850;21.698;2023-02-28T00:27:43;11.60;;;7.30;;
50309;SDS011;36207;51.850;21.698;2023-02-28T00:30:11;11.90;;;7.30;;
50309;SDS011;36207;51.850;21.698;2023-02-28T00:32:38;13.70;;;7.50;;
50309;SDS011;36207;51.850;21.698;2023-02-28T00:35:04;15.20;;;8.10;;
50309;SDS011;36207;51.850;21.698;2023-02-28T00:37:31;13.80;;;8.20;;
50309;SDS011;36207;51.850;21.698;2023-02-28T00:39:57;15.10;;;8.60;;
50309;SDS011;36207;51.850;21.698;2023-02-28T00:42:23;16.00;;;8.80;;
50309;SDS011;36207;51.850;21.698;2023-02-28T00:44:50;17.00;;;9.30;;
50309;SDS011;36207;51.850;21.698;2023-02-28T00:47:15;16.80;;;9.00;;
50309;SDS011;36207;51.850;21.698;2023-02-28T00:49:41;15.20;;;8.70;;
50309;SDS011;36207;51.850;21.698;2023-02-28T00:52:08;17.70;;;8.60;;
50309;SDS011;36207;51.850;21.698;2023-02-28T00:54:33;14.00;;;8.20;;
50309;SDS011;36207;51.850;21.698;2023-02-28T00:56:59;14.70;;;8.10;;
50309;SDS011;36207;51.850;21.698;2023-02-28T00:59:25;15.90;;;8.50;;
50309;SDS011;36207;51.850;21.698;2023-02-28T01:01:51;13.70;;;8.20;;
50309;SDS011;36207;51.850;21.698;2023-02-28T01:04:17;13.00;;;7.80;;
50309;SDS011;36207;51.850;21.698;2023-02-28T01:06:43;11.90;;;7.50;;
50309;SDS011;36207;51.850;21.698;2023-02-28T01:09:09;14.60;;;8.20;;
50309;SDS011;36207;51.850;21.698;2023-02-28T01:11:36;14.10;;;7.60;;
50309;SDS011;36207;51.850;21.698;2023-02-28T01:14:02;16.10;;;8.40;;
50309;SDS011;36207;51.850;21.698;2023-02-28T01:16:29;14.30;;;7.70;;
50309;SDS011;36207;51.850;21.698;2023-02-28T01:18:56;13.80;;;8.00;;
50309;SDS011;36207;51.850;21.698;2023-02-28T01:21:23;13.60;;;8.30;;
50309;SDS011;36207;51.850;21.698;2023-02-28T01:23:50;14.90;;;7.90;;
50309;SDS011;36207;51.850;21.698;2023-02-28T01:26:17;14.50;;;8.40;;
50309;SDS011;36207;51.850;21.698;2023-02-28T01:28:48;16.60;;;8.30;;
50309;SDS011;36207;51.850;21.698;2023-02-28T01:31:17;14.80;;;8.40;;
50309;SDS011;36207;51.850;21.698;2023-02-28T01:33:43;15.10;;;7.90;;
50309;SDS011;36207;51.850;21.698;2023-02-28T01:36:12;16.30;;;8.00;;
50309;SDS011;36207;51.850;21.698;2023-02-28T01:38:43;15.00;;;8.20;;
50309;SDS011;36207;51.850;21.698;2023-02-28T01:41:14;15.20;;;8.70;;
50309;SDS011;36207;51.850;21.698;2023-02-28T01:46:08;15.60;;;9.40;;
50309;SDS011;36207;51.850;21.698;2023-02-28T01:48:35;16.80;;;9.20;;
50309;SDS011;36207;51.850;21.698;2023-02-28T01:51:05;21.10;;;9.30;;
50309;SDS011;36207;51.850;21.698;2023-02-28T01:53:37;18.80;;;9.80;;
50309;SDS011;36207;51.850;21.698;2023-02-28T01:56:08;16.00;;;9.10;;
50309;SDS011;36207;51.850;21.698;2023-02-28T01:58:37;17.40;;;9.10;;
50309;SDS011;36207;51.850;21.698;2023-02-28T02:01:03;15.50;;;8.70;;
50309;SDS011;36207;51.850;21.698;2023-02-28T02:03:30;15.10;;;8.60;;
50309;SDS011;36207;51.850;21.698;2023-02-28T02:05:56;15.30;;;8.40;;
50309;SDS011;36207;51.850;21.698;2023-02-28T02:08:23;16.10;;;8.30;;
50309;SDS011;36207;51.850;21.698;2023-02-28T02:10:52;15.60;;;8.40;;
50309;SDS011;36207;51.850;21.698;2023-02-28T02:13:28;15.50;;;8.20;;
50309;SDS011;36207;51.850;21.698;2023-02-28T02:18:56;16.20;;;8.70;;
50309;SDS011;36207;51.850;21.698;2023-02-28T02:26:50;15.10;;;8.50;;
50309;SDS011;36207;51.850;21.698;2023-02-28T02:32:26;16.50;;;8.70;;
50309;SDS011;36207;51.850;21.698;2023-02-28T02:35:22;15.60;;;8.40;;
50309;SDS011;36207;51.850;21.698;2023-02-28T02:37:57;15.30;;;8.80;;
50309;SDS011;36207;51.850;21.698;2023-02-28T02:40:35;13.60;;;7.90;;
50309;SDS011;36207;51.850;21.698;2023-02-28T02:43:07;14.00;;;8.10;;
50309;SDS011;36207;51.850;21.698;2023-02-28T02:45:43;13.90;;;8.30;;
50309;SDS011;36207;51.850;21.698;2023-02-28T02:48:21;16.30;;;8.60;;
50309;SDS011;36207;51.850;21.698;2023-02-28T02:50:54;15.90;;;8.20;;
50309;SDS011;36207;51.850;21.698;2023-02-28T02:53:36;12.80;;;7.40;;
50309;SDS011;36207;51.850;21.698;2023-02-28T02:56:07;17.10;;;8.30;;
50309;SDS011;36207;51.850;21.698;2023-02-28T02:58:35;14.60;;;7.50;;
50309;SDS011;36207;51.850;21.698;2023-02-28T03:01:08;14.30;;;7.70;;
50309;SDS011;36207;51.850;21.698;2023-02-28T03:03:39;14.00;;;7.90;;
50309;SDS011;36207;51.850;21.698;2023-02-28T03:06:05;13.30;;;7.70;;
50309;SDS011;36207;51.850;21.698;2023-02-28T03:08:35;13.40;;;7.40;;
50309;SDS011;36207;51.850;21.698;2023-02-28T03:11:04;14.10;;;7.90;;
50309;SDS011;36207;51.850;21.698;2023-02-28T03:25:20;11.70;;;7.00;;
50309;SDS011;36207;51.850;21.698;2023-02-28T03:28:15;15.30;;;7.50;;
50309;SDS011;36207;51.850;21.698;2023-02-28T03:30:49;11.40;;;6.90;;
50309;SDS011;36207;51.850;21.698;2023-02-28T03:33:24;12.30;;;7.40;;
50309;SDS011;36207;51.850;21.698;2023-02-28T03:36:02;13.00;;;7.40;;
50309;SDS011;36207;51.850;21.698;2023-02-28T03:38:49;15.30;;;7.10;;
50309;SDS011;36207;51.850;21.698;2023-02-28T03:41:21;15.80;;;7.50;;
50309;SDS011;36207;51.850;21.698;2023-02-28T03:43:58;14.60;;;7.80;;
50309;SDS011;36207;51.850;21.698;2023-02-28T03:46:31;13.40;;;7.50;;
50309;SDS011;36207;51.850;21.698;2023-02-28T03:51:34;12.70;;;7.50;;
50309;SDS011;36207;51.850;21.698;2023-02-28T03:54:05;13.10;;;7.20;;
50309;SDS011;36207;51.850;21.698;2023-02-28T03:59:32;14.30;;;7.60;;
50309;SDS011;36207;51.850;21.698;2023-02-28T04:02:03;12.90;;;7.30;;
50309;SDS011;36207;51.850;21.698;2023-02-28T04:04:29;12.40;;;7.10;;
50309;SDS011;36207;51.850;21.698;2023-02-28T04:07:05;14.60;;;7.70;;
50309;SDS011;36207;51.850;21.698;2023-02-28T04:09:33;12.80;;;7.30;;
50309;SDS011;36207;51.850;21.698;2023-02-28T04:11:58;14.90;;;7.80;;
50309;SDS011;36207;51.850;21.698;2023-02-28T04:14:25;13.50;;;7.50;;
50309;SDS011;36207;51.850;21.698;2023-02-28T04:16:51;13.90;;;7.90;;
50309;SDS011;36207;51.850;21.698;2023-02-28T04:19:17;13.60;;;7.70;;
50309;SDS011;36207;51.850;21.698;2023-02-28T04:21:44;13.00;;;7.70;;
50309;SDS011;36207;51.850;21.698;2023-02-28T04:24:15;14.10;;;7.90;;
50309;SDS011;36207;51.850;21.698;2023-02-28T04:26:46;12.70;;;7.60;;
50309;SDS011;36207;51.850;21.698;2023-02-28T04:29:15;14.20;;;7.90;;
50309;SDS011;36207;51.850;21.698;2023-02-28T04:31:45;13.70;;;7.60;;
50309;SDS011;36207;51.850;21.698;2023-02-28T04:34:11;15.20;;;7.60;;
50309;SDS011;36207;51.850;21.698;2023-02-28T04:36:37;15.00;;;8.10;;
50309;SDS011;36207;51.850;21.698;2023-02-28T04:39:03;12.90;;;7.70;;
50309;SDS011;36207;51.850;21.698;2023-02-28T04:41:29;13.60;;;7.90;;
50309;SDS011;36207;51.850;21.698;2023-02-28T04:43:55;13.80;;;8.30;;
50309;SDS011;36207;51.850;21.698;2023-02-28T04:46:21;13.40;;;7.80;;
50309;SDS011;36207;51.850;21.698;2023-02-28T04:48:48;14.90;;;7.50;;
50309;SDS011;36207;51.850;21.698;2023-02-28T04:51:14;15.00;;;8.20;;
50309;SDS011;36207;51.850;21.698;2023-02-28T04:53:42;19.20;;;9.60;;
50309;SDS011;36207;51.850;21.698;2023-02-28T04:56:10;19.10;;;9.40;;
50309;SDS011;36207;51.850;21.698;2023-02-28T04:58:37;19.70;;;10.40;;
50309;SDS011;36207;51.850;21.698;2023-02-28T05:01:06;25.00;;;12.50;;
50309;SDS011;36207;51.850;21.698;2023-02-28T05:03:42;31.70;;;14.30;;
50309;SDS011;36207;51.850;21.698;2023-02-28T05:06:09;26.60;;;12.20;;
50309;SDS011;36207;51.850;21.698;2023-02-28T05:08:36;21.40;;;10.80;;
50309;SDS011;36207;51.850;21.698;2023-02-28T05:11:02;16.70;;;8.90;;
50309;SDS011;36207;51.850;21.698;2023-02-28T05:13:31;25.40;;;10.90;;
50309;SDS011;36207;51.850;21.698;2023-02-28T05:15:57;24.80;;;11.20;;
50309;SDS011;36207;51.850;21.698;2023-02-28T05:18:23;28.40;;;12.60;;
50309;SDS011;36207;51.850;21.698;2023-02-28T05:20:49;35.90;;;14.10;;
50309;SDS011;36207;51.850;21.698;2023-02-28T05:23:22;28.10;;;13.10;;
50309;SDS011;36207;51.850;21.698;2023-02-28T05:25:48;30.70;;;13.80;;
50309;SDS011;36207;51.850;21.698;2023-02-28T05:28:14;33.70;;;14.70;;
50309;SDS011;36207;51.850;21.698;2023-02-28T05:30:40;28.40;;;13.80;;
50309;SDS011;36207;51.850;21.698;2023-02-28T05:33:06;36.20;;;14.60;;
50309;SDS011;36207;51.850;21.698;2023-02-28T05:35:32;37.70;;;15.60;;
50309;SDS011;36207;51.850;21.698;2023-02-28T05:37:57;34.30;;;14.70;;
50309;SDS011;36207;51.850;21.698;2023-02-28T05:40:23;33.40;;;14.20;;
50309;SDS011;36207;51.850;21.698;2023-02-28T05:42:52;36.20;;;15.00;;
50309;SDS011;36207;51.850;21.698;2023-02-28T05:45:18;27.30;;;13.10;;
50309;SDS011;36207;51.850;21.698;2023-02-28T05:47:43;24.00;;;12.30;;
50309;SDS011;36207;51.850;21.698;2023-02-28T05:50:09;21.00;;;10.90;;
50309;SDS011;36207;51.850;21.698;2023-02-28T05:52:36;23.30;;;11.70;;
50309;SDS011;36207;51.850;21.698;2023-02-28T05:55:03;21.70;;;11.40;;
50309;SDS011;36207;51.850;21.698;2023-02-28T05:57:29;23.60;;;11.20;;
50309;SDS011;36207;51.850;21.698;2023-02-28T05:59:55;23.20;;;11.80;;
50309;SDS011;36207;51.850;21.698;2023-02-28T06:02:20;20.90;;;11.80;;
50309;SDS011;36207;51.850;21.698;2023-02-28T06:04:46;25.40;;;12.30;;
50309;SDS011;36207;51.850;21.698;2023-02-28T06:07:12;22.10;;;11.20;;
50309;SDS011;36207;51.850;21.698;2023-02-28T06:09:38;20.30;;;10.90;;
50309;SDS011;36207;51.850;21.698;2023-02-28T06:12:05;18.30;;;10.70;;
50309;SDS011;36207;51.850;21.698;2023-02-28T06:14:33;23.90;;;10.40;;
50309;SDS011;36207;51.850;21.698;2023-02-28T06:17:00;19.80;;;10.00;;
50309;SDS011;36207;51.850;21.698;2023-02-28T06:19:26;18.60;;;9.70;;
50309;SDS011;36207;51.850;21.698;2023-02-28T06:21:52;18.10;;;9.90;;
50309;SDS011;36207;51.850;21.698;2023-02-28T06:24:20;18.10;;;9.90;;
50309;SDS011;36207;51.850;21.698;2023-02-28T06:26:46;20.60;;;10.30;;
50309;SDS011;36207;51.850;21.698;2023-02-28T06:29:13;22.60;;;11.20;;
50309;SDS011;36207;51.850;21.698;2023-02-28T06:31:42;24.70;;;12.90;;
50309;SDS011;36207;51.850;21.698;2023-02-28T06:34:09;32.80;;;14.40;;
50309;SDS011;36207;51.850;21.698;2023-02-28T06:36:40;26.00;;;15.60;;
50309;SDS011;36207;51.850;21.698;2023-02-28T06:39:07;29.30;;;15.50;;
50309;SDS011;36207;51.850;21.698;2023-02-28T06:41:34;31.40;;;16.90;;
50309;SDS011;36207;51.850;21.698;2023-02-28T06:44:16;28.60;;;16.30;;
50309;SDS011;36207;51.850;21.698;2023-02-28T06:46:43;33.00;;;16.40;;
50309;SDS011;36207;51.850;21.698;2023-02-28T06:49:10;30.20;;;16.00;;
50309;SDS011;36207;51.850;21.698;2023-02-28T06:51:38;26.40;;;14.70;;
50309;SDS011;36207;51.850;21.698;2023-02-28T06:54:05;36.70;;;16.70;;
50309;SDS011;36207;51.850;21.698;2023-02-28T06:56:34;25.80;;;14.40;;
50309;SDS011;36207;51.850;21.698;2023-02-28T06:59:01;27.10;;;14.10;;
50309;SDS011;36207;51.850;21.698;2023-02-28T07:01:27;25.80;;;13.30;;
50309;SDS011;36207;51.850;21.698;2023-02-28T07:03:53;25.70;;;13.50;;
50309;SDS011;36207;51.850;21.698;2023-02-28T07:06:20;23.20;;;12.60;;
50309;SDS011;36207;51.850;21.698;2023-02-28T07:08:50;20.40;;;12.10;;
50309;SDS011;36207;51.850;21.698;2023-02-28T07:11:18;20.10;;;12.00;;
50309;SDS011;36207;51.850;21.698;2023-02-28T07:13:45;21.90;;;12.70;;
50309;SDS011;36207;51.850;21.698;2023-02-28T07:16:13;19.40;;;11.60;;
50309;SDS011;36207;51.850;21.698;2023-02-28T07:18:39;19.70;;;11.10;;
50309;SDS011;36207;51.850;21.698;2023-02-28T07:21:06;19.10;;;11.70;;
50309;SDS011;36207;51.850;21.698;2023-02-28T07:23:34;16.80;;;9.60;;
50309;SDS011;36207;51.850;21.698;2023-02-28T07:26:01;13.80;;;8.60;;
50309;SDS011;36207;51.850;21.698;2023-02-28T07:28:27;15.00;;;8.80;;
50309;SDS011;36207;51.850;21.698;2023-02-28T07:30:53;15.20;;;8.90;;
50309;SDS011;36207;51.850;21.698;2023-02-28T07:33:19;16.20;;;9.60;;
50309;SDS011;36207;51.850;21.698;2023-02-28T07:35:45;24.30;;;13.40;;
50309;SDS011;36207;51.850;21.698;2023-02-28T07:38:10;16.30;;;9.20;;
50309;SDS011;36207;51.850;21.698;2023-02-28T07:40:39;14.90;;;8.90;;
50309;SDS011;36207;51.850;21.698;2023-02-28T07:43:05;15.80;;;8.90;;
50309;SDS011;36207;51.850;21.698;2023-02-28T07:45:31;15.50;;;9.20;;
50309;SDS011;36207;51.850;21.698;2023-02-28T07:47:59;16.30;;;9.20;;
50309;SDS011;36207;51.850;21.698;2023-02-28T07:50:26;14.30;;;8.80;;
50309;SDS011;36207;51.850;21.698;2023-02-28T07:52:54;15.80;;;8.90;;
50309;SDS011;36207;51.850;21.698;2023-02-28T07:55:20;22.70;;;10.60;;
50309;SDS011;36207;51.850;21.698;2023-02-28T07:57:46;18.00;;;10.00;;
50309;SDS011;36207;51.850;21.698;2023-02-28T08:00:12;25.50;;;12.50;;
50309;SDS011;36207;51.850;21.698;2023-02-28T08:02:38;22.50;;;11.70;;
50309;SDS011;36207;51.850;21.698;2023-02-28T08:05:05;18.00;;;9.70;;
50309;SDS011;36207;51.850;21.698;2023-02-28T08:07:32;16.50;;;9.90;;
50309;SDS011;36207;51.850;21.698;2023-02-28T08:09:58;16.00;;;9.70;;
50309;SDS011;36207;51.850;21.698;2023-02-28T08:12:24;18.20;;;9.90;;
50309;SDS011;36207;51.850;21.698;2023-02-28T08:14:50;16.30;;;9.90;;
50309;SDS011;36207;51.850;21.698;2023-02-28T08:17:16;15.00;;;9.20;;
50309;SDS011;36207;51.850;21.698;2023-02-28T08:19:44;16.80;;;9.50;;
50309;SDS011;36207;51.850;21.698;2023-02-28T08:22:11;17.30;;;9.40;;
50309;SDS011;36207;51.850;21.698;2023-02-28T08:24:36;17.30;;;9.30;;
50309;SDS011;36207;51.850;21.698;2023-02-28T08:27:02;14.40;;;9.20;;
50309;SDS011;36207;51.850;21.698;2023-02-28T08:29:28;14.30;;;9.30;;
50309;SDS011;36207;51.850;21.698;2023-02-28T08:31:55;14.60;;;9.10;;
50309;SDS011;36207;51.850;21.698;2023-02-28T08:34:22;16.70;;;9.60;;
50309;SDS011;36207;51.850;21.698;2023-02-28T08:36:48;15.80;;;9.30;;
50309;SDS011;36207;51.850;21.698;2023-02-28T08:39:14;13.20;;;9.00;;
50309;SDS011;36207;51.850;21.698;2023-02-28T08:41:41;15.80;;;9.00;;
50309;SDS011;36207;51.850;21.698;2023-02-28T08:44:08;15.30;;;9.40;;
50309;SDS011;36207;51.850;21.698;2023-02-28T08:46:34;14.60;;;9.30;;
50309;SDS011;36207;51.850;21.698;2023-02-28T08:48:59;13.40;;;9.20;;
50309;SDS011;36207;51.850;21.698;2023-02-28T08:51:27;14.70;;;9.20;;
50309;SDS011;36207;51.850;21.698;2023-02-28T08:53:58;14.60;;;9.10;;
50309;SDS011;36207;51.850;21.698;2023-02-28T08:56:25;14.70;;;9.60;;
50309;SDS011;36207;51.850;21.698;2023-02-28T08:58:54;14.50;;;9.10;;
50309;SDS011;36207;51.850;21.698;2023-02-28T09:01:22;13.30;;;8.50;;
50309;SDS011;36207;51.850;21.698;2023-02-28T09:03:50;14.00;;;9.20;;
50309;SDS011;36207;51.850;21.698;2023-02-28T09:06:17;15.40;;;9.30;;
50309;SDS011;36207;51.850;21.698;2023-02-28T09:08:44;13.20;;;8.70;;
50309;SDS011;36207;51.850;21.698;2023-02-28T09:11:11;13.20;;;8.10;;
50309;SDS011;36207;51.850;21.698;2023-02-28T09:13:37;12.30;;;7.70;;
50309;SDS011;36207;51.850;21.698;2023-02-28T09:16:04;11.70;;;8.20;;
50309;SDS011;36207;51.850;21.698;2023-02-28T09:18:33;11.80;;;7.70;;
50309;SDS011;36207;51.850;21.698;2023-02-28T09:21:06;11.80;;;7.70;;
50309;SDS011;36207;51.850;21.698;2023-02-28T09:23:33;12.60;;;7.90;;
50309;SDS011;36207;51.850;21.698;2023-02-28T09:26:00;13.00;;;8.30;;
50309;SDS011;36207;51.850;21.698;2023-02-28T09:28:26;12.40;;;8.20;;
50309;SDS011;36207;51.850;21.698;2023-02-28T09:30:53;13.30;;;8.60;;
50309;SDS011;36207;51.850;21.698;2023-02-28T09:33:20;12.50;;;8.20;;
50309;SDS011;36207;51.850;21.698;2023-02-28T09:35:47;14.30;;;8.40;;
50309;SDS011;36207;51.850;21.698;2023-02-28T09:38:14;13.00;;;8.10;;
50309;SDS011;36207;51.850;21.698;2023-02-28T09:40:48;12.80;;;8.70;;
50309;SDS011;36207;51.850;21.698;2023-02-28T09:43:17;14.00;;;8.90;;
50309;SDS011;36207;51.850;21.698;2023-02-28T09:45:59;14.00;;;8.30;;
50309;SDS011;36207;51.850;21.698;2023-02-28T09:48:35;12.30;;;8.30;;
50309;SDS011;36207;51.850;21.698;2023-02-28T09:51:09;14.00;;;8.70;;
50309;SDS011;36207;51.850;21.698;2023-02-28T09:53:42;13.50;;;8.80;;
50309;SDS011;36207;51.850;21.698;2023-02-28T09:56:15;12.80;;;8.70;;
50309;SDS011;36207;51.850;21.698;2023-02-28T09:58:52;12.60;;;8.60;;
50309;SDS011;36207;51.850;21.698;2023-02-28T10:06:58;14.40;;;9.00;;
50309;SDS011;36207;51.850;21.698;2023-02-28T10:09:31;14.10;;;9.40;;
50309;SDS011;36207;51.850;21.698;2023-02-28T10:12:02;12.10;;;9.10;;
50309;SDS011;36207;51.850;21.698;2023-02-28T10:14:30;14.20;;;9.40;;
50309;SDS011;36207;51.850;21.698;2023-02-28T10:17:08;13.60;;;9.40;;
50309;SDS011;36207;51.850;21.698;2023-02-28T10:25:17;14.90;;;9.60;;
50309;SDS011;36207;51.850;21.698;2023-02-28T10:27:45;15.90;;;10.10;;
50309;SDS011;36207;51.850;21.698;2023-02-28T10:30:11;14.20;;;9.60;;
50309;SDS011;36207;51.850;21.698;2023-02-28T10:32:39;15.60;;;10.20;;
50309;SDS011;36207;51.850;21.698;2023-02-28T10:37:37;14.10;;;9.80;;
50309;SDS011;36207;51.850;21.698;2023-02-28T10:40:04;14.90;;;9.80;;
50309;SDS011;36207;51.850;21.698;2023-02-28T10:42:58;15.20;;;10.00;;
50309;SDS011;36207;51.850;21.698;2023-02-28T11:00:51;13.80;;;9.10;;
50309;SDS011;36207;51.850;21.698;2023-02-28T11:03:32;15.30;;;9.70;;
50309;SDS011;36207;51.850;21.698;2023-02-28T11:06:04;14.80;;;10.00;;
50309;SDS011;36207;51.850;21.698;2023-02-28T11:08:32;13.60;;;9.90;;
50309;SDS011;36207;51.850;21.698;2023-02-28T11:10:58;14.50;;;9.80;;
50309;SDS011;36207;51.850;21.698;2023-02-28T11:13:32;17.70;;;9.80;;
50309;SDS011;36207;51.850;21.698;2023-02-28T11:16:03;14.60;;;9.80;;
50309;SDS011;36207;51.850;21.698;2023-02-28T11:18:39;15.20;;;9.30;;
50309;SDS011;36207;51.850;21.698;2023-02-28T11:21:06;16.30;;;10.60;;
50309;SDS011;36207;51.850;21.698;2023-02-28T11:23:35;15.50;;;10.00;;
50309;SDS011;36207;51.850;21.698;2023-02-28T11:26:02;15.40;;;9.90;;
50309;SDS011;36207;51.850;21.698;2023-02-28T11:28:36;15.40;;;9.70;;
50309;SDS011;36207;51.850;21.698;2023-02-28T11:36:22;14.50;;;10.10;;
50309;SDS011;36207;51.850;21.698;2023-02-28T11:38:54;17.00;;;10.20;;
50309;SDS011;36207;51.850;21.698;2023-02-28T11:44:23;15.80;;;9.80;;
50309;SDS011;36207;51.850;21.698;2023-02-28T11:46:54;14.70;;;9.80;;
50309;SDS011;36207;51.850;21.698;2023-02-28T11:52:08;15.20;;;9.60;;
50309;SDS011;36207;51.850;21.698;2023-02-28T11:54:50;16.70;;;10.20;;
50309;SDS011;36207;51.850;21.698;2023-02-28T11:57:33;15.50;;;10.00;;
50309;SDS011;36207;51.850;21.698;2023-02-28T12:13:46;16.40;;;10.40;;
50309;SDS011;36207;51.850;21.698;2023-02-28T12:16:34;16.00;;;11.00;;
50309;SDS011;36207;51.850;21.698;2023-02-28T12:19:16;15.30;;;9.90;;
50309;SDS011;36207;51.850;21.698;2023-02-28T12:25:02;17.00;;;10.40;;
50309;SDS011;36207;51.850;21.698;2023-02-28T12:27:47;16.90;;;9.90;;
50309;SDS011;36207;51.850;21.698;2023-02-28T12:32:50;14.90;;;10.40;;
50309;SDS011;36207;51.850;21.698;2023-02-28T12:35:22;13.50;;;9.40;;
50309;SDS011;36207;51.850;21.698;2023-02-28T12:40:45;14.40;;;10.20;;
50309;SDS011;36207;51.850;21.698;2023-02-28T12:43:16;15.30;;;10.00;;
50309;SDS011;36207;51.850;21.698;2023-02-28T12:45:47;15.50;;;10.70;;
50309;SDS011;36207;51.850;21.698;2023-02-28T12:48:25;15.50;;;10.60;;
50309;SDS011;36207;51.850;21.698;2023-02-28T12:51:04;16.10;;;10.10;;
50309;SDS011;36207;51.850;21.698;2023-02-28T12:53:43;14.70;;;10.20;;
50309;SDS011;36207;51.850;21.698;2023-02-28T12:56:20;15.30;;;9.80;;
50309;SDS011;36207;51.850;21.698;2023-02-28T12:59:00;15.40;;;9.40;;
50309;SDS011;36207;51.850;21.698;2023-02-28T13:01:42;14.50;;;9.60;;
50309;SDS011;36207;51.850;21.698;2023-02-28T13:07:12;16.10;;;10.10;;
50309;SDS011;36207;51.850;21.698;2023-02-28T13:09:59;14.30;;;9.20;;
50309;SDS011;36207;51.850;21.698;2023-02-28T13:12:30;15.00;;;9.60;;
50309;SDS011;36207;51.850;21.698;2023-02-28T13:15:17;14.50;;;9.20;;
50309;SDS011;36207;51.850;21.698;2023-02-28T13:17:51;13.50;;;9.20;;
50309;SDS011;36207;51.850;21.698;2023-02-28T13:20:31;13.90;;;9.10;;
50309;SDS011;36207;51.850;21.698;2023-02-28T13:23:00;13.30;;;9.30;;
50309;SDS011;36207;51.850;21.698;2023-02-28T13:27:58;12.80;;;9.10;;
50309;SDS011;36207;51.850;21.698;2023-02-28T13:33:31;11.90;;;8.80;;
50309;SDS011;36207;51.850;21.698;2023-02-28T13:36:22;12.70;;;8.80;;
50309;SDS011;36207;51.850;21.698;2023-02-28T13:38:54;15.70;;;9.30;;
50309;SDS011;36207;51.850;21.698;2023-02-28T13:41:49;13.80;;;9.00;;
50309;SDS011;36207;51.850;21.698;2023-02-28T13:44:17;13.50;;;9.00;;
50309;SDS011;36207;51.850;21.698;2023-02-28T13:51:49;18.90;;;9.70;;
50309;SDS011;36207;51.850;21.698;2023-02-28T13:54:34;15.60;;;9.40;;
50309;SDS011;36207;51.850;21.698;2023-02-28T13:57:27;13.30;;;9.10;;
50309;SDS011;36207;51.850;21.698;2023-02-28T14:00:05;15.50;;;9.40;;
50309;SDS011;36207;51.850;21.698;2023-02-28T14:05:13;14.40;;;9.20;;
50309;SDS011;36207;51.850;21.698;2023-02-28T14:07:49;13.00;;;8.70;;
50309;SDS011;36207;51.850;21.698;2023-02-28T14:10:23;14.50;;;9.50;;
50309;SDS011;36207;51.850;21.698;2023-02-28T14:12:59;15.10;;;9.20;;
50309;SDS011;36207;51.850;21.698;2023-02-28T14:20:48;14.10;;;9.30;;
50309;SDS011;36207;51.850;21.698;2023-02-28T14:31:44;16.50;;;9.30;;
50309;SDS011;36207;51.850;21.698;2023-02-28T14:34:57;18.10;;;10.20;;
50309;SDS011;36207;51.850;21.698;2023-02-28T14:37:29;14.10;;;9.50;;
50309;SDS011;36207;51.850;21.698;2023-02-28T14:39:59;14.30;;;9.60;;
50309;SDS011;36207;51.850;21.698;2023-02-28T14:42:33;16.10;;;9.80;;
50309;SDS011;36207;51.850;21.698;2023-02-28T14:45:03;14.30;;;9.50;;
50309;SDS011;36207;51.850;21.698;2023-02-28T14:47:30;15.50;;;9.50;;
50309;SDS011;36207;51.850;21.698;2023-02-28T14:49:59;14.70;;;9.80;;
50309;SDS011;36207;51.850;21.698;2023-02-28T14:52:27;17.10;;;10.20;;
50309;SDS011;36207;51.850;21.698;2023-02-28T14:54:59;15.00;;;10.00;;
50309;SDS011;36207;51.850;21.698;2023-02-28T14:57:26;14.50;;;9.40;;
50309;SDS011;36207;51.850;21.698;2023-02-28T15:00:03;14.50;;;9.70;;
50309;SDS011;36207;51.850;21.698;2023-02-28T15:02:38;21.30;;;12.90;;
50309;SDS011;36207;51.850;21.698;2023-02-28T15:07:46;16.70;;;10.20;;
50309;SDS011;36207;51.850;21.698;2023-02-28T15:10:21;15.40;;;9.80;;
50309;SDS011;36207;51.850;21.698;2023-02-28T15:15:21;15.80;;;9.80;;
50309;SDS011;36207;51.850;21.698;2023-02-28T15:18:07;17.10;;;11.10;;
50309;SDS011;36207;51.850;21.698;2023-02-28T15:20:41;18.60;;;11.30;;
50309;SDS011;36207;51.850;21.698;2023-02-28T15:23:09;17.40;;;10.60;;
50309;SDS011;36207;51.850;21.698;2023-02-28T15:25:36;16.10;;;10.00;;
50309;SDS011;36207;51.850;21.698;2023-02-28T15:28:02;16.70;;;9.70;;
50309;SDS011;36207;51.850;21.698;2023-02-28T15:30:29;18.20;;;11.30;;
50309;SDS011;36207;51.850;21.698;2023-02-28T15:33:04;16.00;;;9.60;;
50309;SDS011;36207;51.850;21.698;2023-02-28T15:43:11;16.90;;;10.50;;
50309;SDS011;36207;51.850;21.698;2023-02-28T15:48:37;15.00;;;10.50;;
50309;SDS011;36207;51.850;21.698;2023-02-28T15:51:07;19.00;;;11.00;;
50309;SDS011;36207;51.850;21.698;2023-02-28T15:53:37;18.70;;;11.20;;
50309;SDS011;36207;51.850;21.698;2023-02-28T15:56:19;15.90;;;10.90;;
50309;SDS011;36207;51.850;21.698;2023-02-28T15:58:47;17.00;;;11.10;;
50309;SDS011;36207;51.850;21.698;2023-02-28T16:01:17;18.50;;;11.70;;
50309;SDS011;36207;51.850;21.698;2023-02-28T16:03:48;18.50;;;11.50;;
50309;SDS011;36207;51.850;21.698;2023-02-28T16:08:42;18.60;;;12.40;;
50309;SDS011;36207;51.850;21.698;2023-02-28T16:11:10;20.50;;;12.80;;
50309;SDS011;36207;51.850;21.698;2023-02-28T16:13:36;22.50;;;13.00;;
50309;SDS011;36207;51.850;21.698;2023-02-28T16:16:02;22.90;;;13.60;;
50309;SDS011;36207;51.850;21.698;2023-02-28T16:18:29;20.90;;;13.40;;
50309;SDS011;36207;51.850;21.698;2023-02-28T16:20:55;21.50;;;12.90;;
50309;SDS011;36207;51.850;21.698;2023-02-28T16:23:21;21.60;;;13.00;;
50309;SDS011;36207;51.850;21.698;2023-02-28T16:25:47;22.30;;;12.60;;
50309;SDS011;36207;51.850;21.698;2023-02-28T16:28:20;19.20;;;12.40;;
50309;SDS011;36207;51.850;21.698;2023-02-28T16:30:51;23.80;;;15.40;;
50309;SDS011;36207;51.850;21.698;2023-02-28T16:33:17;28.60;;;16.70;;
50309;SDS011;36207;51.850;21.698;2023-02-28T16:35:43;40.50;;;22.70;;
50309;SDS011;36207;51.850;21.698;2023-02-28T16:38:09;40.10;;;19.50;;
50309;SDS011;36207;51.850;21.698;2023-02-28T16:40:36;45.20;;;24.70;;
50309;SDS011;36207;51.850;21.698;2023-02-28T16:43:05;58.80;;;29.90;;
50309;SDS011;36207;51.850;21.698;2023-02-28T16:45:33;74.00;;;32.60;;
50309;SDS011;36207;51.850;21.698;2023-02-28T16:47:59;99.70;;;37.00;;
50309;SDS011;36207;51.850;21.698;2023-02-28T16:50:27;120.50;;;42.30;;
50309;SDS011;36207;51.850;21.698;2023-02-28T16:52:54;155.90;;;53.10;;